sensor_id;sensor_type;location;lat;lon;timestamp;temperature;humidity
69677;DHT22;56914;51.058;9.326;2023-04-02T00:00:22;13.60;70.60
69677;DHT22;56914;51.058;9.326;2023-04-02T00:01:34;13.50;70.50
69677;DHT22;56914;51.058;9.326;2023-04-02T00:02:54;13.50;71.10
69677;DHT22;56914;51.058;9.326;2023-04-02T00:04:10;13.50;70.80
69677;DHT22;56914;51.058;9.326;2023-04-02T00:05:36;13.50;70.80
69677;DHT22;56914;51.058;9.326;2023-04-02T00:06:55;13.50;70.70
69677;DHT22;56914;51.058;9.326;2023-04-02T00:08:25;13.40;71.40
69677;DHT22;56914;51.058;9.326;2023-04-02T00:09:34;13.40;70.90
69677;DHT22;56914;51.058;9.326;2023-04-02T00:10:46;13.40;71.50
69677;DHT22;56914;51.058;9.326;2023-04-02T00:11:51;13.30;70.80
69677;DHT22;56914;51.058;9.326;2023-04-02T00:13:02;13.20;71.10
69677;DHT22;56914;51.058;9.326;2023-04-02T00:14:15;13.20;71.40
69677;DHT22;56914;51.058;9.326;2023-04-02T00:15:18;13.20;71.60
69677;DHT22;56914;51.058;9.326;2023-04-02T00:16:24;13.10;71.80
69677;DHT22;56914;51.058;9.326;2023-04-02T00:17:26;13.10;72.10
69677;DHT22;56914;51.058;9.326;2023-04-02T00:18:31;13.00;72.10
69677;DHT22;56914;51.058;9.326;2023-04-02T00:19:37;13.00;72.40
69677;DHT22;56914;51.058;9.326;2023-04-02T00:20:47;12.90;72.40
69677;DHT22;56914;51.058;9.326;2023-04-02T00:21:52;12.90;72.70
69677;DHT22;56914;51.058;9.326;2023-04-02T00:22:55;12.80;72.70
69677;DHT22;56914;51.058;9.326;2023-04-02T00:24:00;12.80;73.10
69677;DHT22;56914;51.058;9.326;2023-04-02T00:25:12;12.70;73.20
69677;DHT22;56914;51.058;9.326;2023-04-02T00:26:21;12.60;73.50
69677;DHT22;56914;51.058;9.326;2023-04-02T00:27:25;12.60;73.50
69677;DHT22;56914;51.058;9.326;2023-04-02T00:28:28;12.50;73.90
69677;DHT22;56914;51.058;9.326;2023-04-02T00:29:32;12.50;74.20
69677;DHT22;56914;51.058;9.326;2023-04-02T00:30:34;12.50;74.20
69677;DHT22;56914;51.058;9.326;2023-04-02T00:31:42;12.40;74.20
69677;DHT22;56914;51.058;9.326;2023-04-02T00:32:45;12.40;74.30
69677;DHT22;56914;51.058;9.326;2023-04-02T00:33:49;12.50;74.40
69677;DHT22;56914;51.058;9.326;2023-04-02T00:34:51;12.40;74.20
69677;DHT22;56914;51.058;9.326;2023-04-02T00:35:57;12.40;74.00
69677;DHT22;56914;51.058;9.326;2023-04-02T00:36:59;12.50;74.10
69677;DHT22;56914;51.058;9.326;2023-04-02T00:38:03;12.50;73.90
69677;DHT22;56914;51.058;9.326;2023-04-02T00:39:14;12.40;74.00
69677;DHT22;56914;51.058;9.326;2023-04-02T00:40:23;12.40;73.80
69677;DHT22;56914;51.058;9.326;2023-04-02T00:41:30;12.40;73.60
69677;DHT22;56914;51.058;9.326;2023-04-02T00:42:38;12.40;73.60
69677;DHT22;56914;51.058;9.326;2023-04-02T00:43:45;12.30;73.50
69677;DHT22;56914;51.058;9.326;2023-04-02T00:44:53;12.30;73.40
69677;DHT22;56914;51.058;9.326;2023-04-02T00:46:00;12.30;73.40
69677;DHT22;56914;51.058;9.326;2023-04-02T00:47:11;12.20;73.60
69677;DHT22;56914;51.058;9.326;2023-04-02T00:48:30;12.10;73.40
69677;DHT22;56914;51.058;9.326;2023-04-02T00:49:39;12.00;73.60
69677;DHT22;56914;51.058;9.326;2023-04-02T00:50:44;12.00;73.90
69677;DHT22;56914;51.058;9.326;2023-04-02T00:51:52;12.00;74.10
69677;DHT22;56914;51.058;9.326;2023-04-02T00:52:58;12.00;73.80
69677;DHT22;56914;51.058;9.326;2023-04-02T00:54:04;11.90;74.00
69677;DHT22;56914;51.058;9.326;2023-04-02T00:55:16;11.80;74.10
69677;DHT22;56914;51.058;9.326;2023-04-02T00:56:26;11.80;74.20
69677;DHT22;56914;51.058;9.326;2023-04-02T00:57:30;11.80;74.20
69677;DHT22;56914;51.058;9.326;2023-04-02T00:58:35;11.90;74.20
69677;DHT22;56914;51.058;9.326;2023-04-02T00:59:50;11.90;74.00
69677;DHT22;56914;51.058;9.326;2023-04-02T01:00:55;11.90;73.80
69677;DHT22;56914;51.058;9.326;2023-04-02T01:02:20;11.90;73.50
69677;DHT22;56914;51.058;9.326;2023-04-02T01:03:32;11.90;73.70
69677;DHT22;56914;51.058;9.326;2023-04-02T01:04:38;12.00;73.60
69677;DHT22;56914;51.058;9.326;2023-04-02T01:05:41;12.00;73.60
69677;DHT22;56914;51.058;9.326;2023-04-02T01:06:47;12.00;73.20
69677;DHT22;56914;51.058;9.326;2023-04-02T01:08:04;12.00;73.20
69677;DHT22;56914;51.058;9.326;2023-04-02T01:09:24;12.00;73.20
69677;DHT22;56914;51.058;9.326;2023-04-02T01:10:44;12.00;73.20
69677;DHT22;56914;51.058;9.326;2023-04-02T01:12:18;12.00;72.70
69677;DHT22;56914;51.058;9.326;2023-04-02T01:13:32;12.00;72.60
69677;DHT22;56914;51.058;9.326;2023-04-02T01:14:44;11.90;72.90
69677;DHT22;56914;51.058;9.326;2023-04-02T01:15:58;12.00;72.80
69677;DHT22;56914;51.058;9.326;2023-04-02T01:17:15;12.00;73.00
69677;DHT22;56914;51.058;9.326;2023-04-02T01:18:34;12.10;72.40
69677;DHT22;56914;51.058;9.326;2023-04-02T01:20:06;12.10;71.90
69677;DHT22;56914;51.058;9.326;2023-04-02T01:22:55;11.90;72.60
69677;DHT22;56914;51.058;9.326;2023-04-02T01:24:03;12.00;72.50
69677;DHT22;56914;51.058;9.326;2023-04-02T01:25:07;12.00;72.60
69677;DHT22;56914;51.058;9.326;2023-04-02T01:26:26;12.00;72.40
69677;DHT22;56914;51.058;9.326;2023-04-02T01:27:39;12.10;72.20
69677;DHT22;56914;51.058;9.326;2023-04-02T01:29:02;12.00;71.90
69677;DHT22;56914;51.058;9.326;2023-04-02T01:30:10;12.00;71.80
69677;DHT22;56914;51.058;9.326;2023-04-02T01:31:15;12.00;72.10
69677;DHT22;56914;51.058;9.326;2023-04-02T01:32:21;12.00;72.20
69677;DHT22;56914;51.058;9.326;2023-04-02T01:33:29;12.00;71.70
69677;DHT22;56914;51.058;9.326;2023-04-02T01:34:34;11.90;71.50
69677;DHT22;56914;51.058;9.326;2023-04-02T01:35:44;11.80;71.70
69677;DHT22;56914;51.058;9.326;2023-04-02T01:37:04;11.70;72.10
69677;DHT22;56914;51.058;9.326;2023-04-02T01:38:15;11.70;72.30
69677;DHT22;56914;51.058;9.326;2023-04-02T01:39:36;11.70;72.40
69677;DHT22;56914;51.058;9.326;2023-04-02T01:40:48;11.70;72.50
69677;DHT22;56914;51.058;9.326;2023-04-02T01:42:06;11.70;72.40
69677;DHT22;56914;51.058;9.326;2023-04-02T01:43:19;11.60;72.50
69677;DHT22;56914;51.058;9.326;2023-04-02T01:44:35;11.70;72.40
69677;DHT22;56914;51.058;9.326;2023-04-02T01:45:40;11.70;72.30
69677;DHT22;56914;51.058;9.326;2023-04-02T01:46:47;11.70;72.20
69677;DHT22;56914;51.058;9.326;2023-04-02T01:47:51;11.70;72.30
69677;DHT22;56914;51.058;9.326;2023-04-02T01:48:55;11.80;72.40
69677;DHT22;56914;51.058;9.326;2023-04-02T01:50:03;11.70;71.80
69677;DHT22;56914;51.058;9.326;2023-04-02T01:51:07;11.70;71.60
69677;DHT22;56914;51.058;9.326;2023-04-02T01:52:16;11.60;72.20
69677;DHT22;56914;51.058;9.326;2023-04-02T01:53:22;11.60;72.40
69677;DHT22;56914;51.058;9.326;2023-04-02T01:54:26;11.60;72.40
69677;DHT22;56914;51.058;9.326;2023-04-02T01:55:33;11.70;71.70
69677;DHT22;56914;51.058;9.326;2023-04-02T01:56:37;11.60;71.80
69677;DHT22;56914;51.058;9.326;2023-04-02T01:57:44;11.60;71.70
69677;DHT22;56914;51.058;9.326;2023-04-02T01:58:48;11.60;72.00
69677;DHT22;56914;51.058;9.326;2023-04-02T01:59:53;11.60;72.20
69677;DHT22;56914;51.058;9.326;2023-04-02T02:01:00;11.60;72.00
69677;DHT22;56914;51.058;9.326;2023-04-02T02:02:05;11.50;72.00
69677;DHT22;56914;51.058;9.326;2023-04-02T02:03:11;11.50;72.00
69677;DHT22;56914;51.058;9.326;2023-04-02T02:04:16;11.50;71.90
69677;DHT22;56914;51.058;9.326;2023-04-02T02:05:21;11.40;71.90
69677;DHT22;56914;51.058;9.326;2023-04-02T02:06:25;11.40;72.10
69677;DHT22;56914;51.058;9.326;2023-04-02T02:07:28;11.40;72.10
69677;DHT22;56914;51.058;9.326;2023-04-02T02:08:37;11.40;72.10
69677;DHT22;56914;51.058;9.326;2023-04-02T02:09:41;11.40;71.80
69677;DHT22;56914;51.058;9.326;2023-04-02T02:10:44;11.40;72.20
69677;DHT22;56914;51.058;9.326;2023-04-02T02:11:47;11.30;72.10
69677;DHT22;56914;51.058;9.326;2023-04-02T02:12:51;11.40;72.00
69677;DHT22;56914;51.058;9.326;2023-04-02T02:13:56;11.30;72.00
69677;DHT22;56914;51.058;9.326;2023-04-02T02:15:01;11.30;72.30
69677;DHT22;56914;51.058;9.326;2023-04-02T02:16:05;11.30;72.10
69677;DHT22;56914;51.058;9.326;2023-04-02T02:17:14;11.30;72.10
69677;DHT22;56914;51.058;9.326;2023-04-02T02:18:20;11.30;72.00
69677;DHT22;56914;51.058;9.326;2023-04-02T02:19:28;11.20;72.00
69677;DHT22;56914;51.058;9.326;2023-04-02T02:20:34;11.20;72.50
69677;DHT22;56914;51.058;9.326;2023-04-02T02:21:41;11.20;72.50
69677;DHT22;56914;51.058;9.326;2023-04-02T02:22:48;11.20;72.40
69677;DHT22;56914;51.058;9.326;2023-04-02T02:23:51;11.20;72.50
69677;DHT22;56914;51.058;9.326;2023-04-02T02:24:58;11.30;72.30
69677;DHT22;56914;51.058;9.326;2023-04-02T02:26:04;11.20;72.20
69677;DHT22;56914;51.058;9.326;2023-04-02T02:27:39;11.20;72.00
69677;DHT22;56914;51.058;9.326;2023-04-02T02:28:47;11.20;72.20
69677;DHT22;56914;51.058;9.326;2023-04-02T02:29:57;11.10;72.30
69677;DHT22;56914;51.058;9.326;2023-04-02T02:31:06;11.20;72.50
69677;DHT22;56914;51.058;9.326;2023-04-02T02:32:17;11.20;72.40
69677;DHT22;56914;51.058;9.326;2023-04-02T02:33:24;11.20;72.20
69677;DHT22;56914;51.058;9.326;2023-04-02T02:34:35;11.20;72.30
69677;DHT22;56914;51.058;9.326;2023-04-02T02:35:45;11.20;72.10
69677;DHT22;56914;51.058;9.326;2023-04-02T02:36:55;11.20;72.00
69677;DHT22;56914;51.058;9.326;2023-04-02T02:38:18;11.20;72.10
69677;DHT22;56914;51.058;9.326;2023-04-02T02:39:30;11.30;71.80
69677;DHT22;56914;51.058;9.326;2023-04-02T02:40:39;11.30;71.70
69677;DHT22;56914;51.058;9.326;2023-04-02T02:41:50;11.20;71.30
69677;DHT22;56914;51.058;9.326;2023-04-02T02:42:59;11.20;71.30
69677;DHT22;56914;51.058;9.326;2023-04-02T02:44:10;11.20;71.40
69677;DHT22;56914;51.058;9.326;2023-04-02T02:45:19;11.10;71.60
69677;DHT22;56914;51.058;9.326;2023-04-02T02:46:27;11.10;71.60
69677;DHT22;56914;51.058;9.326;2023-04-02T02:47:35;11.10;71.40
69677;DHT22;56914;51.058;9.326;2023-04-02T02:48:39;11.10;71.40
69677;DHT22;56914;51.058;9.326;2023-04-02T02:49:47;11.00;71.80
69677;DHT22;56914;51.058;9.326;2023-04-02T02:50:53;11.00;72.00
69677;DHT22;56914;51.058;9.326;2023-04-02T02:52:00;11.00;71.80
69677;DHT22;56914;51.058;9.326;2023-04-02T02:53:11;11.00;71.60
69677;DHT22;56914;51.058;9.326;2023-04-02T02:54:17;11.10;71.90
69677;DHT22;56914;51.058;9.326;2023-04-02T02:55:25;11.10;71.50
69677;DHT22;56914;51.058;9.326;2023-04-02T02:56:34;11.00;71.40
69677;DHT22;56914;51.058;9.326;2023-04-02T02:57:45;11.00;71.50
69677;DHT22;56914;51.058;9.326;2023-04-02T02:58:52;11.00;71.30
69677;DHT22;56914;51.058;9.326;2023-04-02T02:59:57;11.00;71.60
69677;DHT22;56914;51.058;9.326;2023-04-02T03:01:02;10.90;71.30
69677;DHT22;56914;51.058;9.326;2023-04-02T03:02:06;11.00;71.60
69677;DHT22;56914;51.058;9.326;2023-04-02T03:03:15;11.00;71.70
69677;DHT22;56914;51.058;9.326;2023-04-02T03:04:20;11.00;72.10
69677;DHT22;56914;51.058;9.326;2023-04-02T03:05:27;11.00;71.40
69677;DHT22;56914;51.058;9.326;2023-04-02T03:06:30;10.90;71.80
69677;DHT22;56914;51.058;9.326;2023-04-02T03:07:34;10.80;71.60
69677;DHT22;56914;51.058;9.326;2023-04-02T03:08:43;10.90;71.80
69677;DHT22;56914;51.058;9.326;2023-04-02T03:09:53;10.90;71.60
69677;DHT22;56914;51.058;9.326;2023-04-02T03:11:05;10.90;71.40
69677;DHT22;56914;51.058;9.326;2023-04-02T03:12:29;10.90;71.60
69677;DHT22;56914;51.058;9.326;2023-04-02T03:13:37;10.90;71.60
69677;DHT22;56914;51.058;9.326;2023-04-02T03:14:47;10.80;71.40
69677;DHT22;56914;51.058;9.326;2023-04-02T03:16:01;10.90;71.60
69677;DHT22;56914;51.058;9.326;2023-04-02T03:17:13;10.90;71.70
69677;DHT22;56914;51.058;9.326;2023-04-02T03:18:31;10.90;71.70
69677;DHT22;56914;51.058;9.326;2023-04-02T03:19:42;11.00;71.20
69677;DHT22;56914;51.058;9.326;2023-04-02T03:20:48;11.00;71.20
69677;DHT22;56914;51.058;9.326;2023-04-02T03:21:58;10.90;70.90
69677;DHT22;56914;51.058;9.326;2023-04-02T03:23:14;10.90;70.80
69677;DHT22;56914;51.058;9.326;2023-04-02T03:24:30;11.00;70.90
69677;DHT22;56914;51.058;9.326;2023-04-02T03:25:41;11.00;71.10
69677;DHT22;56914;51.058;9.326;2023-04-02T03:26:51;11.00;70.70
69677;DHT22;56914;51.058;9.326;2023-04-02T03:28:00;11.00;70.30
69677;DHT22;56914;51.058;9.326;2023-04-02T03:29:13;10.90;70.20
69677;DHT22;56914;51.058;9.326;2023-04-02T03:30:28;10.90;70.40
69677;DHT22;56914;51.058;9.326;2023-04-02T03:31:38;10.90;70.70
69677;DHT22;56914;51.058;9.326;2023-04-02T03:32:49;10.90;70.80
69677;DHT22;56914;51.058;9.326;2023-04-02T03:33:57;10.90;70.80
69677;DHT22;56914;51.058;9.326;2023-04-02T03:35:05;10.90;70.70
69677;DHT22;56914;51.058;9.326;2023-04-02T03:36:19;10.90;71.00
69677;DHT22;56914;51.058;9.326;2023-04-02T03:37:30;10.90;70.40
69677;DHT22;56914;51.058;9.326;2023-04-02T03:38:42;10.80;70.20
69677;DHT22;56914;51.058;9.326;2023-04-02T03:39:51;10.70;70.70
69677;DHT22;56914;51.058;9.326;2023-04-02T03:41:04;10.70;71.00
69677;DHT22;56914;51.058;9.326;2023-04-02T03:42:16;10.60;71.30
69677;DHT22;56914;51.058;9.326;2023-04-02T03:43:25;10.60;71.50
69677;DHT22;56914;51.058;9.326;2023-04-02T03:44:34;10.70;71.40
69677;DHT22;56914;51.058;9.326;2023-04-02T03:45:42;10.70;71.40
69677;DHT22;56914;51.058;9.326;2023-04-02T03:46:52;10.70;71.10
69677;DHT22;56914;51.058;9.326;2023-04-02T03:48:06;10.70;71.00
69677;DHT22;56914;51.058;9.326;2023-04-02T03:49:19;10.70;70.80
69677;DHT22;56914;51.058;9.326;2023-04-02T03:50:30;10.60;70.70
69677;DHT22;56914;51.058;9.326;2023-04-02T03:51:39;10.60;71.00
69677;DHT22;56914;51.058;9.326;2023-04-02T03:52:47;10.60;71.00
69677;DHT22;56914;51.058;9.326;2023-04-02T03:53:51;10.60;71.10
69677;DHT22;56914;51.058;9.326;2023-04-02T03:54:55;10.50;71.10
69677;DHT22;56914;51.058;9.326;2023-04-02T03:56:00;10.50;71.20
69677;DHT22;56914;51.058;9.326;2023-04-02T03:57:04;10.50;71.30
69677;DHT22;56914;51.058;9.326;2023-04-02T03:58:15;10.50;71.20
69677;DHT22;56914;51.058;9.326;2023-04-02T03:59:33;10.60;70.80
69677;DHT22;56914;51.058;9.326;2023-04-02T04:00:47;10.50;70.60
69677;DHT22;56914;51.058;9.326;2023-04-02T04:01:57;10.40;71.10
69677;DHT22;56914;51.058;9.326;2023-04-02T04:03:09;10.40;71.30
69677;DHT22;56914;51.058;9.326;2023-04-02T04:04:17;10.40;71.50
69677;DHT22;56914;51.058;9.326;2023-04-02T04:05:25;10.40;71.40
69677;DHT22;56914;51.058;9.326;2023-04-02T04:06:32;10.40;71.10
69677;DHT22;56914;51.058;9.326;2023-04-02T04:07:38;10.40;71.30
69677;DHT22;56914;51.058;9.326;2023-04-02T04:08:49;10.40;70.80
69677;DHT22;56914;51.058;9.326;2023-04-02T04:09:58;10.30;70.70
69677;DHT22;56914;51.058;9.326;2023-04-02T04:11:07;10.30;70.90
69677;DHT22;56914;51.058;9.326;2023-04-02T04:12:22;10.20;70.80
69677;DHT22;56914;51.058;9.326;2023-04-02T04:13:35;10.20;71.20
69677;DHT22;56914;51.058;9.326;2023-04-02T04:14:45;10.20;71.10
69677;DHT22;56914;51.058;9.326;2023-04-02T04:15:56;10.20;71.30
69677;DHT22;56914;51.058;9.326;2023-04-02T04:17:10;10.20;71.60
69677;DHT22;56914;51.058;9.326;2023-04-02T04:18:26;10.20;71.40
69677;DHT22;56914;51.058;9.326;2023-04-02T04:19:42;10.30;71.30
69677;DHT22;56914;51.058;9.326;2023-04-02T04:20:50;10.40;70.90
69677;DHT22;56914;51.058;9.326;2023-04-02T04:22:08;10.30;70.70
69677;DHT22;56914;51.058;9.326;2023-04-02T04:23:18;10.30;70.90
69677;DHT22;56914;51.058;9.326;2023-04-02T04:24:26;10.30;70.60
69677;DHT22;56914;51.058;9.326;2023-04-02T04:25:30;10.30;70.70
69677;DHT22;56914;51.058;9.326;2023-04-02T04:26:41;10.30;70.70
69677;DHT22;56914;51.058;9.326;2023-04-02T04:27:55;10.20;71.00
69677;DHT22;56914;51.058;9.326;2023-04-02T04:29:30;10.30;71.00
69677;DHT22;56914;51.058;9.326;2023-04-02T04:30:45;10.30;70.90
69677;DHT22;56914;51.058;9.326;2023-04-02T04:31:52;10.20;70.60
69677;DHT22;56914;51.058;9.326;2023-04-02T04:33:00;10.20;70.90
69677;DHT22;56914;51.058;9.326;2023-04-02T04:34:11;10.20;70.70
69677;DHT22;56914;51.058;9.326;2023-04-02T04:35:23;10.20;70.80
69677;DHT22;56914;51.058;9.326;2023-04-02T04:36:32;10.20;70.80
69677;DHT22;56914;51.058;9.326;2023-04-02T04:37:40;10.20;70.90
69677;DHT22;56914;51.058;9.326;2023-04-02T04:39:59;10.20;70.40
69677;DHT22;56914;51.058;9.326;2023-04-02T04:41:15;10.20;71.20
69677;DHT22;56914;51.058;9.326;2023-04-02T04:42:24;10.20;70.40
69677;DHT22;56914;51.058;9.326;2023-04-02T04:43:37;10.20;70.60
69677;DHT22;56914;51.058;9.326;2023-04-02T04:44:50;10.20;70.70
69677;DHT22;56914;51.058;9.326;2023-04-02T04:45:59;10.20;70.70
69677;DHT22;56914;51.058;9.326;2023-04-02T04:47:10;10.10;70.00
69677;DHT22;56914;51.058;9.326;2023-04-02T04:48:19;10.20;70.20
69677;DHT22;56914;51.058;9.326;2023-04-02T04:49:33;10.10;70.10
69677;DHT22;56914;51.058;9.326;2023-04-02T04:50:46;10.10;70.00
69677;DHT22;56914;51.058;9.326;2023-04-02T04:51:53;10.10;69.80
69677;DHT22;56914;51.058;9.326;2023-04-02T04:53:05;10.10;69.70
69677;DHT22;56914;51.058;9.326;2023-04-02T04:54:12;10.00;69.80
69677;DHT22;56914;51.058;9.326;2023-04-02T04:55:26;10.00;70.00
69677;DHT22;56914;51.058;9.326;2023-04-02T04:56:31;10.00;70.10
69677;DHT22;56914;51.058;9.326;2023-04-02T04:57:36;10.00;70.10
69677;DHT22;56914;51.058;9.326;2023-04-02T04:58:47;10.00;70.00
69677;DHT22;56914;51.058;9.326;2023-04-02T04:59:56;10.00;69.90
69677;DHT22;56914;51.058;9.326;2023-04-02T05:01:06;10.00;70.20
69677;DHT22;56914;51.058;9.326;2023-04-02T05:02:17;9.90;70.20
69677;DHT22;56914;51.058;9.326;2023-04-02T05:03:29;10.00;69.90
69677;DHT22;56914;51.058;9.326;2023-04-02T05:04:37;9.90;70.00
69677;DHT22;56914;51.058;9.326;2023-04-02T05:05:41;9.90;69.80
69677;DHT22;56914;51.058;9.326;2023-04-02T05:06:52;9.80;69.60
69677;DHT22;56914;51.058;9.326;2023-04-02T05:08:03;9.80;70.20
69677;DHT22;56914;51.058;9.326;2023-04-02T05:09:15;9.80;70.10
69677;DHT22;56914;51.058;9.326;2023-04-02T05:10:26;9.80;70.30
69677;DHT22;56914;51.058;9.326;2023-04-02T05:11:39;9.80;70.30
69677;DHT22;56914;51.058;9.326;2023-04-02T05:12:50;9.70;70.30
69677;DHT22;56914;51.058;9.326;2023-04-02T05:13:57;9.70;70.40
69677;DHT22;56914;51.058;9.326;2023-04-02T05:15:11;9.70;70.60
69677;DHT22;56914;51.058;9.326;2023-04-02T05:16:21;9.70;70.00
69677;DHT22;56914;51.058;9.326;2023-04-02T05:17:30;9.70;70.40
69677;DHT22;56914;51.058;9.326;2023-04-02T05:18:40;9.70;70.40
69677;DHT22;56914;51.058;9.326;2023-04-02T05:19:51;9.70;70.40
69677;DHT22;56914;51.058;9.326;2023-04-02T05:21:04;9.70;70.60
69677;DHT22;56914;51.058;9.326;2023-04-02T05:22:19;9.70;70.70
69677;DHT22;56914;51.058;9.326;2023-04-02T05:23:27;9.70;70.60
69677;DHT22;56914;51.058;9.326;2023-04-02T05:24:48;9.80;70.40
69677;DHT22;56914;51.058;9.326;2023-04-02T05:26:01;9.70;70.40
69677;DHT22;56914;51.058;9.326;2023-04-02T05:27:25;9.80;70.60
69677;DHT22;56914;51.058;9.326;2023-04-02T05:28:37;9.80;70.50
69677;DHT22;56914;51.058;9.326;2023-04-02T05:29:48;9.80;69.90
69677;DHT22;56914;51.058;9.326;2023-04-02T05:30:56;9.80;69.30
69677;DHT22;56914;51.058;9.326;2023-04-02T05:32:07;9.70;69.50
69677;DHT22;56914;51.058;9.326;2023-04-02T05:33:19;9.70;69.60
69677;DHT22;56914;51.058;9.326;2023-04-02T05:34:28;9.60;69.90
69677;DHT22;56914;51.058;9.326;2023-04-02T05:35:41;9.60;69.30
69677;DHT22;56914;51.058;9.326;2023-04-02T05:36:46;9.60;69.70
69677;DHT22;56914;51.058;9.326;2023-04-02T05:37:50;9.60;69.60
69677;DHT22;56914;51.058;9.326;2023-04-02T05:38:53;9.60;69.60
69677;DHT22;56914;51.058;9.326;2023-04-02T05:40:01;9.60;69.70
69677;DHT22;56914;51.058;9.326;2023-04-02T05:41:23;9.60;69.70
69677;DHT22;56914;51.058;9.326;2023-04-02T05:42:31;9.60;69.10
69677;DHT22;56914;51.058;9.326;2023-04-02T05:43:39;9.60;69.70
69677;DHT22;56914;51.058;9.326;2023-04-02T05:44:55;9.60;70.00
69677;DHT22;56914;51.058;9.326;2023-04-02T05:46:13;9.60;69.80
69677;DHT22;56914;51.058;9.326;2023-04-02T05:47:21;9.60;70.10
69677;DHT22;56914;51.058;9.326;2023-04-02T05:48:31;9.70;69.60
69677;DHT22;56914;51.058;9.326;2023-04-02T05:49:43;9.60;69.80
69677;DHT22;56914;51.058;9.326;2023-04-02T05:50:53;9.60;69.40
69677;DHT22;56914;51.058;9.326;2023-04-02T05:52:00;9.60;69.80
69677;DHT22;56914;51.058;9.326;2023-04-02T05:53:08;9.60;69.90
69677;DHT22;56914;51.058;9.326;2023-04-02T05:54:19;9.60;69.60
69677;DHT22;56914;51.058;9.326;2023-04-02T05:55:43;9.50;69.50
69677;DHT22;56914;51.058;9.326;2023-04-02T05:56:57;9.50;69.50
69677;DHT22;56914;51.058;9.326;2023-04-02T05:58:05;9.40;69.40
69677;DHT22;56914;51.058;9.326;2023-04-02T05:59:34;9.40;69.50
69677;DHT22;56914;51.058;9.326;2023-04-02T06:01:03;9.40;70.20
69677;DHT22;56914;51.058;9.326;2023-04-02T06:02:19;9.40;70.40
69677;DHT22;56914;51.058;9.326;2023-04-02T06:03:30;9.40;70.10
69677;DHT22;56914;51.058;9.326;2023-04-02T06:04:43;9.40;69.90
69677;DHT22;56914;51.058;9.326;2023-04-02T06:05:51;9.40;69.80
69677;DHT22;56914;51.058;9.326;2023-04-02T06:06:59;9.40;69.30
69677;DHT22;56914;51.058;9.326;2023-04-02T06:08:10;9.40;69.50
69677;DHT22;56914;51.058;9.326;2023-04-02T06:09:22;9.30;69.60
69677;DHT22;56914;51.058;9.326;2023-04-02T06:10:30;9.30;69.10
69677;DHT22;56914;51.058;9.326;2023-04-02T06:11:40;9.20;69.80
69677;DHT22;56914;51.058;9.326;2023-04-02T06:12:50;9.20;70.20
69677;DHT22;56914;51.058;9.326;2023-04-02T06:13:54;9.20;70.10
69677;DHT22;56914;51.058;9.326;2023-04-02T06:14:57;9.30;70.20
69677;DHT22;56914;51.058;9.326;2023-04-02T06:16:00;9.30;70.00
69677;DHT22;56914;51.058;9.326;2023-04-02T06:17:04;9.30;70.00
69677;DHT22;56914;51.058;9.326;2023-04-02T06:18:10;9.30;70.10
69677;DHT22;56914;51.058;9.326;2023-04-02T06:19:21;9.30;69.90
69677;DHT22;56914;51.058;9.326;2023-04-02T06:20:27;9.30;69.80
69677;DHT22;56914;51.058;9.326;2023-04-02T06:21:31;9.30;69.80
69677;DHT22;56914;51.058;9.326;2023-04-02T06:22:38;9.30;70.20
69677;DHT22;56914;51.058;9.326;2023-04-02T06:23:49;9.30;70.30
69677;DHT22;56914;51.058;9.326;2023-04-02T06:25:00;9.40;70.30
69677;DHT22;56914;51.058;9.326;2023-04-02T06:26:15;9.40;69.90
69677;DHT22;56914;51.058;9.326;2023-04-02T06:27:22;9.40;69.60
69677;DHT22;56914;51.058;9.326;2023-04-02T06:28:38;9.30;69.40
69677;DHT22;56914;51.058;9.326;2023-04-02T06:29:45;9.30;70.00
69677;DHT22;56914;51.058;9.326;2023-04-02T06:30:53;9.40;69.20
69677;DHT22;56914;51.058;9.326;2023-04-02T06:32:00;9.20;69.10
69677;DHT22;56914;51.058;9.326;2023-04-02T06:33:04;9.30;69.70
69677;DHT22;56914;51.058;9.326;2023-04-02T06:34:14;9.20;69.60
69677;DHT22;56914;51.058;9.326;2023-04-02T06:35:18;9.30;70.00
69677;DHT22;56914;51.058;9.326;2023-04-02T06:36:22;9.30;69.90
69677;DHT22;56914;51.058;9.326;2023-04-02T06:37:31;9.30;69.20
69677;DHT22;56914;51.058;9.326;2023-04-02T06:38:37;9.20;69.40
69677;DHT22;56914;51.058;9.326;2023-04-02T06:39:40;9.20;70.10
69677;DHT22;56914;51.058;9.326;2023-04-02T06:40:47;9.20;69.50
69677;DHT22;56914;51.058;9.326;2023-04-02T06:41:57;9.20;69.90
69677;DHT22;56914;51.058;9.326;2023-04-02T06:43:07;9.20;70.10
69677;DHT22;56914;51.058;9.326;2023-04-02T06:44:17;9.20;70.10
69677;DHT22;56914;51.058;9.326;2023-04-02T06:45:25;9.20;69.50
69677;DHT22;56914;51.058;9.326;2023-04-02T06:46:34;9.20;69.50
69677;DHT22;56914;51.058;9.326;2023-04-02T06:47:42;9.20;69.50
69677;DHT22;56914;51.058;9.326;2023-04-02T06:48:51;9.20;69.50
69677;DHT22;56914;51.058;9.326;2023-04-02T06:50:01;9.20;69.90
69677;DHT22;56914;51.058;9.326;2023-04-02T06:51:10;9.20;69.40
69677;DHT22;56914;51.058;9.326;2023-04-02T06:52:20;9.10;69.30
69677;DHT22;56914;51.058;9.326;2023-04-02T06:53:30;9.10;69.80
69677;DHT22;56914;51.058;9.326;2023-04-02T06:54:34;9.10;69.90
69677;DHT22;56914;51.058;9.326;2023-04-02T06:55:46;9.10;69.60
69677;DHT22;56914;51.058;9.326;2023-04-02T06:56:51;9.20;69.80
69677;DHT22;56914;51.058;9.326;2023-04-02T06:57:57;9.20;69.50
69677;DHT22;56914;51.058;9.326;2023-04-02T06:58:59;9.20;69.60
69677;DHT22;56914;51.058;9.326;2023-04-02T07:00:08;9.20;69.50
69677;DHT22;56914;51.058;9.326;2023-04-02T07:01:26;9.20;69.60
69677;DHT22;56914;51.058;9.326;2023-04-02T07:02:36;9.30;69.80
69677;DHT22;56914;51.058;9.326;2023-04-02T07:03:40;9.30;69.60
69677;DHT22;56914;51.058;9.326;2023-04-02T07:04:44;9.30;69.00
69677;DHT22;56914;51.058;9.326;2023-04-02T07:05:46;9.20;69.00
69677;DHT22;56914;51.058;9.326;2023-04-02T07:06:50;9.10;69.10
69677;DHT22;56914;51.058;9.326;2023-04-02T07:07:52;9.10;69.70
69677;DHT22;56914;51.058;9.326;2023-04-02T07:08:57;9.20;69.90
69677;DHT22;56914;51.058;9.326;2023-04-02T07:10:00;9.20;69.80
69677;DHT22;56914;51.058;9.326;2023-04-02T07:11:02;9.20;69.60
69677;DHT22;56914;51.058;9.326;2023-04-02T07:12:10;9.10;69.40
69677;DHT22;56914;51.058;9.326;2023-04-02T07:13:15;9.10;69.20
69677;DHT22;56914;51.058;9.326;2023-04-02T07:14:18;9.10;69.30
69677;DHT22;56914;51.058;9.326;2023-04-02T07:15:22;9.00;69.20
69677;DHT22;56914;51.058;9.326;2023-04-02T07:16:26;9.10;69.50
69677;DHT22;56914;51.058;9.326;2023-04-02T07:17:31;9.10;70.10
69677;DHT22;56914;51.058;9.326;2023-04-02T07:18:33;9.10;69.60
69677;DHT22;56914;51.058;9.326;2023-04-02T07:19:36;9.10;70.00
69677;DHT22;56914;51.058;9.326;2023-04-02T07:20:39;9.00;69.80
69677;DHT22;56914;51.058;9.326;2023-04-02T07:21:42;9.00;69.80
69677;DHT22;56914;51.058;9.326;2023-04-02T07:22:45;9.00;69.90
69677;DHT22;56914;51.058;9.326;2023-04-02T07:23:48;9.00;69.90